createdAt,value
2019-05-09T00:00:33.392Z,9.25
2019-05-09T00:01:06.385Z,9.25
2019-05-09T00:01:40.324Z,9.25
2019-05-09T00:02:21.354Z,9.25
2019-05-09T00:02:54.383Z,9.25
2019-05-09T00:03:27.281Z,9.25
2019-05-09T00:04:00.710Z,9.25
2019-05-09T00:04:33.747Z,9.31
2019-05-09T00:05:08.388Z,9.31
2019-05-09T00:05:43.910Z,9.31
2019-05-09T00:06:16.057Z,9.31
2019-05-09T00:06:49.103Z,9.38
2019-05-09T00:07:23.352Z,9.38
2019-05-09T00:07:56.371Z,9.38
2019-05-09T00:08:29.403Z,9.38
2019-05-09T00:09:04.285Z,9.38
2019-05-09T00:09:37.158Z,9.38
2019-05-09T00:10:10.468Z,9.38
2019-05-09T00:10:44.982Z,9.38
2019-05-09T00:11:19.463Z,9.38
2019-05-09T00:11:53.105Z,9.38
2019-05-09T00:12:26.112Z,9.38
2019-05-09T00:12:59.133Z,9.38
2019-05-09T00:13:34.177Z,9.38
2019-05-09T00:14:07.134Z,9.31
2019-05-09T00:14:40.188Z,9.38
2019-05-09T00:15:13.758Z,9.31
2019-05-09T00:15:46.873Z,9.31
2019-05-09T00:16:19.902Z,9.31
2019-05-09T00:16:53.178Z,9.31
2019-05-09T00:17:26.143Z,9.31
2019-05-09T00:17:59.073Z,9.31
2019-05-09T00:18:33.603Z,9.31
2019-05-09T00:19:06.823Z,9.31
2019-05-09T00:19:39.749Z,9.25
2019-05-09T00:20:20.283Z,9.25
2019-05-09T00:21:04.162Z,9.25
2019-05-09T00:21:40.897Z,9.25
2019-05-09T00:22:13.916Z,9.25
2019-05-09T00:22:46.950Z,9.25
2019-05-09T00:23:21.151Z,9.25
2019-05-09T00:23:54.287Z,9.25
2019-05-09T00:24:27.365Z,9.25
2019-05-09T00:25:00.384Z,9.25
2019-05-09T00:25:34.070Z,9.25
2019-05-09T00:26:07.102Z,9.25
2019-05-09T00:26:44.381Z,9.19
2019-05-09T00:27:17.386Z,9.19
2019-05-09T00:27:50.402Z,9.19
2019-05-09T00:28:24.764Z,9.19
2019-05-09T00:29:03.798Z,9.19
2019-05-09T00:29:43.869Z,9.19
2019-05-09T00:30:19.733Z,9.19
2019-05-09T00:30:55.381Z,9.19
2019-05-09T00:31:56.754Z,9.13
2019-05-09T00:32:34.208Z,9.13
2019-05-09T00:33:07.290Z,9.06
2019-05-09T00:33:41.385Z,9.06
2019-05-09T00:34:23.337Z,9.00
2019-05-09T00:35:04.453Z,9.00
2019-05-09T00:35:39.468Z,8.94
2019-05-09T00:36:14.067Z,8.94
2019-05-09T00:36:47.116Z,8.94
2019-05-09T00:37:43.248Z,8.94
2019-05-09T00:38:17.689Z,8.94
2019-05-09T00:38:50.793Z,8.94
2019-05-09T00:39:23.758Z,8.88
2019-05-09T00:39:56.705Z,8.88
2019-05-09T00:40:29.657Z,8.88
2019-05-09T00:41:03.806Z,8.88
2019-05-09T00:41:37.065Z,8.81
2019-05-09T00:42:10.228Z,8.81
2019-05-09T00:42:44.185Z,8.75
2019-05-09T00:43:17.417Z,8.75
2019-05-09T00:43:57.266Z,8.75
2019-05-09T00:44:33.877Z,8.69
2019-05-09T00:45:10.750Z,8.69
2019-05-09T00:46:04.374Z,8.69
2019-05-09T00:46:44.924Z,8.69
2019-05-09T00:47:24.181Z,8.63
2019-05-09T00:47:57.281Z,8.63
2019-05-09T00:48:36.545Z,8.63
2019-05-09T00:49:17.027Z,8.56
2019-05-09T00:49:50.093Z,8.56
2019-05-09T00:50:23.601Z,8.50
2019-05-09T00:50:56.746Z,8.50
2019-05-09T00:51:29.795Z,8.50
2019-05-09T00:52:03.557Z,8.50
2019-05-09T00:52:37.819Z,8.50
2019-05-09T00:53:10.860Z,8.44
2019-05-09T00:53:44.507Z,8.44
2019-05-09T00:54:17.555Z,8.44
2019-05-09T00:54:50.630Z,8.38
2019-05-09T00:55:24.007Z,8.44
2019-05-09T00:55:57.306Z,8.38
2019-05-09T00:56:36.601Z,8.38
2019-05-09T00:57:13.742Z,8.38
2019-05-09T00:57:46.816Z,8.38
2019-05-09T00:58:19.873Z,8.31
2019-05-09T00:58:53.733Z,8.38
2019-05-09T00:59:26.911Z,8.31
2019-05-09T01:00:00.971Z,8.31
2019-05-09T01:00:33.922Z,8.31
2019-05-09T01:01:07.020Z,8.31
2019-05-09T01:01:40.098Z,8.31
2019-05-09T01:02:13.248Z,8.31
2019-05-09T01:02:46.469Z,8.31
2019-05-09T01:03:19.545Z,8.31
2019-05-09T01:03:53.509Z,8.25
2019-05-09T01:04:26.865Z,8.25
2019-05-09T01:04:59.961Z,8.25
2019-05-09T01:05:34.141Z,8.25
2019-05-09T01:06:07.494Z,8.25
2019-05-09T01:06:40.542Z,8.25
2019-05-09T01:07:13.998Z,8.25
2019-05-09T01:07:47.042Z,8.25
2019-05-09T01:08:20.044Z,8.25
2019-05-09T01:08:53.853Z,8.25
2019-05-09T01:09:27.228Z,8.25
2019-05-09T01:10:00.174Z,8.25
2019-05-09T01:10:34.214Z,8.25
2019-05-09T01:11:12.374Z,8.25
2019-05-09T01:11:44.002Z,8.25
2019-05-09T01:12:17.175Z,8.25
2019-05-09T01:12:50.352Z,8.25
2019-05-09T01:13:23.253Z,8.25
2019-05-09T01:13:56.359Z,8.25
2019-05-09T01:14:29.287Z,8.25
2019-05-09T01:15:03.312Z,8.25
2019-05-09T01:15:37.854Z,8.25
2019-05-09T01:16:12.801Z,8.25
2019-05-09T01:16:45.713Z,8.25
2019-05-09T01:17:18.805Z,8.25
2019-05-09T01:17:53.645Z,8.25
2019-05-09T01:18:26.840Z,8.25
2019-05-09T01:18:59.971Z,8.25
2019-05-09T01:19:33.835Z,8.25
2019-05-09T01:20:09.207Z,8.25
2019-05-09T01:20:44.045Z,8.25
2019-05-09T01:21:17.163Z,8.25
2019-05-09T01:21:50.298Z,8.25
2019-05-09T01:22:25.086Z,8.25
2019-05-09T01:22:58.079Z,8.25
2019-05-09T01:23:31.334Z,8.25
2019-05-09T01:24:04.731Z,8.25
2019-05-09T01:24:37.705Z,8.25
2019-05-09T01:25:10.825Z,8.25
2019-05-09T01:25:43.882Z,8.25
2019-05-09T01:26:16.978Z,8.25
2019-05-09T01:26:50.037Z,8.25
2019-05-09T01:27:23.404Z,8.25
2019-05-09T01:27:57.682Z,8.25
2019-05-09T01:28:30.609Z,8.31
2019-05-09T01:29:04.650Z,8.31
2019-05-09T01:29:38.686Z,8.31
2019-05-09T01:30:13.559Z,8.31
2019-05-09T01:30:46.806Z,8.31
2019-05-09T01:31:19.862Z,8.31
2019-05-09T01:31:55.690Z,8.31
2019-05-09T01:32:43.386Z,8.31
2019-05-09T01:33:29.369Z,8.31
2019-05-09T01:34:20.027Z,8.31
2019-05-09T01:34:53.312Z,8.38
2019-05-09T01:35:27.337Z,8.38
2019-05-09T01:36:00.240Z,8.38
2019-05-09T01:36:51.369Z,8.38
2019-05-09T01:37:24.390Z,8.44
2019-05-09T01:37:57.570Z,8.44
2019-05-09T01:38:30.689Z,8.44
2019-05-09T01:39:04.963Z,8.38
2019-05-09T01:39:37.857Z,8.38
2019-05-09T01:40:13.118Z,8.38
2019-05-09T01:40:45.758Z,8.38
2019-05-09T01:41:28.067Z,8.38
2019-05-09T01:41:53.749Z,8.38
2019-05-09T01:42:26.813Z,8.31
2019-05-09T01:42:59.657Z,8.38
2019-05-09T01:43:33.776Z,8.38
2019-05-09T01:44:07.007Z,8.38
2019-05-09T01:44:40.103Z,8.31
2019-05-09T01:45:14.125Z,8.31
2019-05-09T01:45:47.461Z,8.31
2019-05-09T01:46:23.438Z,8.31
2019-05-09T01:46:56.407Z,8.31
2019-05-09T01:47:29.576Z,8.31
2019-05-09T01:48:03.365Z,8.31
2019-05-09T01:48:36.494Z,8.31
2019-05-09T01:49:09.507Z,8.31
2019-05-09T01:49:43.185Z,8.31
2019-05-09T01:50:16.410Z,8.31
2019-05-09T01:50:49.565Z,8.31
2019-05-09T01:51:23.356Z,8.31
2019-05-09T01:51:56.775Z,8.31
2019-05-09T01:52:30.911Z,8.31
2019-05-09T01:53:04.250Z,8.31
2019-05-09T01:53:43.813Z,8.31
2019-05-09T01:54:17.671Z,8.31
2019-05-09T01:54:50.763Z,8.25
2019-05-09T01:55:43.487Z,8.25
2019-05-09T01:56:16.570Z,8.25
2019-05-09T01:56:49.623Z,8.25
2019-05-09T01:57:23.265Z,8.25
2019-05-09T01:57:56.368Z,8.25
2019-05-09T01:58:31.011Z,8.25
2019-05-09T01:59:04.070Z,8.25
2019-05-09T01:59:37.003Z,8.25
2019-05-09T02:00:10.546Z,8.25
2019-05-09T02:00:43.682Z,8.25
2019-05-09T02:01:16.720Z,8.19
2019-05-09T02:01:49.676Z,8.19
2019-05-09T02:02:23.887Z,8.19
2019-05-09T02:02:56.831Z,8.19
2019-05-09T02:03:30.268Z,8.19
2019-05-09T02:04:04.193Z,8.19
2019-05-09T02:04:37.352Z,8.19
2019-05-09T02:05:10.517Z,8.25
2019-05-09T02:05:43.677Z,8.25
2019-05-09T02:06:16.800Z,8.25
2019-05-09T02:06:49.962Z,8.31
2019-05-09T02:07:23.753Z,8.31
2019-05-09T02:07:57.141Z,8.38
2019-05-09T02:08:30.320Z,8.38
2019-05-09T02:09:06.137Z,8.38
2019-05-09T02:09:39.337Z,8.38
2019-05-09T02:10:13.913Z,8.38
2019-05-09T02:10:47.387Z,8.38
2019-05-09T02:11:20.564Z,8.44
2019-05-09T02:11:54.523Z,8.44
2019-05-09T02:12:27.942Z,8.44
2019-05-09T02:13:03.066Z,8.44
2019-05-09T02:13:36.116Z,8.44
2019-05-09T02:14:10.292Z,8.44
2019-05-09T02:14:50.248Z,8.44
2019-05-09T02:15:34.246Z,8.44
2019-05-09T02:16:27.325Z,8.44
2019-05-09T02:17:16.867Z,8.50
2019-05-09T02:18:04.299Z,8.50
2019-05-09T02:18:53.559Z,8.50
2019-05-09T02:19:30.065Z,8.50
2019-05-09T02:20:04.090Z,8.50
2019-05-09T02:20:38.599Z,8.50
2019-05-09T02:21:14.444Z,8.50
2019-05-09T02:21:46.622Z,8.56
2019-05-09T02:22:35.282Z,8.56
2019-05-09T02:23:08.346Z,8.56
2019-05-09T02:23:43.174Z,8.56
2019-05-09T02:24:16.196Z,8.56
2019-05-09T02:24:49.215Z,8.56
2019-05-09T02:25:24.258Z,8.56
2019-05-09T02:25:57.095Z,8.56
2019-05-09T02:26:30.036Z,8.56
2019-05-09T02:27:03.920Z,8.56
2019-05-09T02:27:37.211Z,8.56
2019-05-09T02:28:10.202Z,8.56
2019-05-09T02:28:43.488Z,8.56
2019-05-09T02:29:16.403Z,8.56
2019-05-09T02:29:49.497Z,8.56
2019-05-09T02:30:25.346Z,8.56
2019-05-09T02:30:57.467Z,8.56
2019-05-09T02:31:30.287Z,8.56
2019-05-09T02:32:04.687Z,8.56
2019-05-09T02:32:38.160Z,8.56
2019-05-09T02:33:13.755Z,8.56
2019-05-09T02:33:46.072Z,8.56
2019-05-09T02:34:20.115Z,8.56
2019-05-09T02:34:54.749Z,8.56
2019-05-09T02:35:29.331Z,8.56
2019-05-09T02:36:03.050Z,8.56
2019-05-09T02:36:38.494Z,8.56
2019-05-09T02:37:10.981Z,8.50
2019-05-09T02:37:43.967Z,8.50
2019-05-09T02:38:19.752Z,8.50
2019-05-09T02:38:51.818Z,8.50
2019-05-09T02:39:24.816Z,8.50
2019-05-09T02:39:59.093Z,8.50
2019-05-09T02:40:32.512Z,8.50
2019-05-09T02:41:08.380Z,8.50
2019-05-09T02:41:58.982Z,8.50
2019-05-09T02:42:15.440Z,8.50
2019-05-09T02:42:49.118Z,8.50
2019-05-09T02:43:22.294Z,8.50
2019-05-09T02:43:58.391Z,8.50
2019-05-09T02:44:30.011Z,8.50
2019-05-09T02:45:03.733Z,8.50
2019-05-09T02:45:51.618Z,8.50
2019-05-09T02:46:29.382Z,8.50
2019-05-09T02:47:08.989Z,8.50
2019-05-09T02:47:42.472Z,8.56
2019-05-09T02:48:18.613Z,8.56
2019-05-09T02:48:51.911Z,8.56
2019-05-09T02:49:24.988Z,8.56
2019-05-09T02:49:58.972Z,8.56
2019-05-09T02:50:33.374Z,8.56
2019-05-09T02:51:08.944Z,8.63
2019-05-09T02:51:41.352Z,8.63
2019-05-09T02:52:14.409Z,8.63
2019-05-09T02:52:48.755Z,8.63
2019-05-09T02:53:22.071Z,8.63
2019-05-09T02:53:55.013Z,8.63
2019-05-09T02:54:29.748Z,8.63
2019-05-09T02:55:03.579Z,8.63
2019-05-09T02:55:38.727Z,8.63
2019-05-09T02:56:11.673Z,8.63
2019-05-09T02:56:44.751Z,8.63
2019-05-09T02:57:18.659Z,8.63
2019-05-09T02:57:53.475Z,8.63
2019-05-09T02:58:28.967Z,8.69
2019-05-09T02:59:10.085Z,8.63
2019-05-09T03:00:01.073Z,8.63
2019-05-09T03:00:53.867Z,8.63
2019-05-09T03:01:42.501Z,8.63
2019-05-09T03:02:38.447Z,8.63
2019-05-09T03:03:20.441Z,8.56
2019-05-09T03:03:53.506Z,8.56
2019-05-09T03:04:28.388Z,8.56
2019-05-09T03:05:03.456Z,8.56
2019-05-09T03:05:38.351Z,8.50
2019-05-09T03:06:11.709Z,8.50
2019-05-09T03:06:49.117Z,8.50
2019-05-09T03:07:40.813Z,8.50
2019-05-09T03:08:13.933Z,8.44
2019-05-09T03:08:49.073Z,8.44
2019-05-09T03:09:22.167Z,8.44
2019-05-09T03:09:57.986Z,8.44
2019-05-09T03:10:30.321Z,8.44
2019-05-09T03:11:03.461Z,8.38
2019-05-09T03:11:38.756Z,8.38
2019-05-09T03:12:26.065Z,8.38
2019-05-09T03:12:50.125Z,8.38
2019-05-09T03:13:22.295Z,8.31
2019-05-09T03:13:58.349Z,8.31
2019-05-09T03:14:30.205Z,8.31
2019-05-09T03:15:03.949Z,8.31
2019-05-09T03:15:39.335Z,8.25
2019-05-09T03:16:13.731Z,8.25
2019-05-09T03:16:49.148Z,8.25
2019-05-09T03:17:21.748Z,8.25
2019-05-09T03:17:54.727Z,8.19
2019-05-09T03:18:28.671Z,8.19
2019-05-09T03:19:01.943Z,8.19
2019-05-09T03:19:34.863Z,8.19
2019-05-09T03:20:10.661Z,8.13
2019-05-09T03:21:00.157Z,8.13
2019-05-09T03:21:39.055Z,8.13
2019-05-09T03:22:18.773Z,8.13
2019-05-09T03:22:52.892Z,8.13
2019-05-09T03:23:28.536Z,8.13
2019-05-09T03:24:00.731Z,8.06
2019-05-09T03:24:33.654Z,8.13
2019-05-09T03:25:09.014Z,8.06
2019-05-09T03:25:41.838Z,8.13
2019-05-09T03:26:19.498Z,8.06
2019-05-09T03:27:00.265Z,8.13
2019-05-09T03:27:35.302Z,8.13
2019-05-09T03:28:32.151Z,8.13
2019-05-09T03:29:14.009Z,8.13
2019-05-09T03:29:50.480Z,8.06
2019-05-09T03:30:29.071Z,8.06
2019-05-09T03:31:02.700Z,8.06
2019-05-09T03:31:39.064Z,8.06
2019-05-09T03:32:10.746Z,8.06
2019-05-09T03:32:43.867Z,8.06
2019-05-09T03:33:19.995Z,8.06
2019-05-09T03:33:52.806Z,8.06
2019-05-09T03:34:29.766Z,8.13
2019-05-09T03:35:00.663Z,8.13
2019-05-09T03:35:33.883Z,8.13
2019-05-09T03:36:07.823Z,8.13
2019-05-09T03:36:41.129Z,8.06
2019-05-09T03:37:14.142Z,8.06
2019-05-09T03:37:49.077Z,8.06
2019-05-09T03:38:22.065Z,8.06
2019-05-09T03:38:55.030Z,8.00
2019-05-09T03:39:31.263Z,8.00
2019-05-09T03:40:04.446Z,8.00
2019-05-09T03:40:37.811Z,8.00
2019-05-09T03:41:12.242Z,7.94
2019-05-09T03:41:45.197Z,7.94
2019-05-09T03:42:21.612Z,7.94
2019-05-09T03:42:53.310Z,7.94
2019-05-09T03:43:27.495Z,7.94
2019-05-09T03:44:01.003Z,7.94
2019-05-09T03:44:34.045Z,7.94
2019-05-09T03:45:08.351Z,7.94
2019-05-09T03:45:51.189Z,7.94
2019-05-09T03:46:31.735Z,7.87
2019-05-09T03:47:11.770Z,7.87
2019-05-09T03:47:54.427Z,7.87
2019-05-09T03:48:33.193Z,7.87
2019-05-09T03:49:07.641Z,7.87
2019-05-09T03:49:40.737Z,7.87
2019-05-09T03:50:17.663Z,7.87
2019-05-09T03:50:50.906Z,7.87
2019-05-09T03:51:23.941Z,7.87
2019-05-09T03:51:58.482Z,7.87
2019-05-09T03:52:31.626Z,7.87
2019-05-09T03:53:04.675Z,7.87
2019-05-09T03:53:38.041Z,7.81
2019-05-09T03:54:11.300Z,7.81
2019-05-09T03:54:44.219Z,7.81
2019-05-09T03:55:22.792Z,7.81
2019-05-09T03:55:57.716Z,7.81
2019-05-09T03:56:37.461Z,7.81
2019-05-09T03:57:19.651Z,7.81
2019-05-09T03:57:59.987Z,7.81
2019-05-09T03:58:32.987Z,7.75
2019-05-09T03:59:08.169Z,7.75
2019-05-09T03:59:40.912Z,7.75
2019-05-09T04:00:14.225Z,7.75
2019-05-09T04:00:47.930Z,7.75
2019-05-09T04:01:21.269Z,7.75
2019-05-09T04:01:54.285Z,7.75
2019-05-09T04:02:28.178Z,7.75
2019-05-09T04:03:01.162Z,7.69
2019-05-09T04:03:34.187Z,7.69
2019-05-09T04:04:08.837Z,7.75
2019-05-09T04:04:43.180Z,7.75
2019-05-09T04:05:18.124Z,7.75
2019-05-09T04:05:59.279Z,7.75
2019-05-09T04:06:28.144Z,7.75
2019-05-09T04:07:01.067Z,7.75
2019-05-09T04:07:34.385Z,7.75
2019-05-09T04:08:18.123Z,7.69
2019-05-09T04:08:53.967Z,7.69
2019-05-09T04:09:27.536Z,7.69
2019-05-09T04:10:00.783Z,7.69
2019-05-09T04:10:33.728Z,7.69
2019-05-09T04:11:08.577Z,7.69
2019-05-09T04:11:41.618Z,7.62
2019-05-09T04:12:14.622Z,7.69
2019-05-09T04:12:56.251Z,7.62
2019-05-09T04:13:31.327Z,7.69
2019-05-09T04:14:08.680Z,7.69
2019-05-09T04:14:41.908Z,7.62
2019-05-09T04:15:18.837Z,7.69
2019-05-09T04:15:49.964Z,7.69
2019-05-09T04:16:23.072Z,7.69
2019-05-09T04:16:57.526Z,7.69
2019-05-09T04:17:50.263Z,7.69
2019-05-09T04:18:23.240Z,7.69
2019-05-09T04:18:58.105Z,7.69
2019-05-09T04:19:31.493Z,7.69
2019-05-09T04:20:05.579Z,7.69
2019-05-09T04:20:38.613Z,7.69
2019-05-09T04:21:11.563Z,7.69
2019-05-09T04:21:44.535Z,7.69
2019-05-09T04:22:18.211Z,7.69
2019-05-09T04:22:51.325Z,7.69
2019-05-09T04:23:24.123Z,7.69
2019-05-09T04:23:58.684Z,7.75
2019-05-09T04:24:31.760Z,7.75
2019-05-09T04:25:04.981Z,7.75
2019-05-09T04:25:42.216Z,7.75
2019-05-09T04:26:40.985Z,7.75
2019-05-09T04:27:22.654Z,7.75
2019-05-09T04:27:55.437Z,7.75
2019-05-09T04:28:28.481Z,7.75
2019-05-09T04:29:01.469Z,7.75
2019-05-09T04:29:34.415Z,7.75
2019-05-09T04:30:09.451Z,7.75
2019-05-09T04:30:42.701Z,7.75
2019-05-09T04:31:17.760Z,7.75
2019-05-09T04:31:50.868Z,7.75
2019-05-09T04:32:23.874Z,7.75
2019-05-09T04:32:58.145Z,7.75
2019-05-09T04:33:31.222Z,7.81
2019-05-09T04:34:04.317Z,7.75
2019-05-09T04:34:38.083Z,7.81
2019-05-09T04:35:11.559Z,7.81
2019-05-09T04:35:47.423Z,7.81
2019-05-09T04:36:38.183Z,7.81
2019-05-09T04:37:12.280Z,7.81
2019-05-09T04:37:48.027Z,7.81
2019-05-09T04:38:20.791Z,7.81
2019-05-09T04:38:54.005Z,7.81
2019-05-09T04:39:28.346Z,7.81
2019-05-09T04:40:03.476Z,7.81
2019-05-09T04:40:37.734Z,7.81
2019-05-09T04:41:18.384Z,7.81
2019-05-09T04:41:48.740Z,7.81
2019-05-09T04:42:29.001Z,7.87
2019-05-09T04:43:14.113Z,7.87
2019-05-09T04:43:39.695Z,7.87
2019-05-09T04:44:21.761Z,7.87
2019-05-09T04:45:03.565Z,7.87
2019-05-09T04:45:41.853Z,7.87
2019-05-09T04:46:20.781Z,7.87
2019-05-09T04:46:54.196Z,7.87
2019-05-09T04:47:24.671Z,7.94
2019-05-09T04:47:58.741Z,7.94
2019-05-09T04:48:32.625Z,7.94
2019-05-09T04:49:05.689Z,7.94
2019-05-09T04:49:40.925Z,7.94
2019-05-09T04:50:15.435Z,7.94
2019-05-09T04:50:48.579Z,7.94
2019-05-09T04:51:21.590Z,7.94
2019-05-09T04:51:54.497Z,7.94
2019-05-09T04:52:28.485Z,7.94
2019-05-09T04:53:01.389Z,7.94
2019-05-09T04:53:34.909Z,7.94
2019-05-09T04:54:08.036Z,7.94
2019-05-09T04:54:41.779Z,7.94
2019-05-09T04:55:15.409Z,7.94
2019-05-09T04:55:48.457Z,7.94
2019-05-09T04:56:28.645Z,7.94
2019-05-09T04:57:01.743Z,7.94
2019-05-09T04:57:34.644Z,7.94
2019-05-09T04:58:09.289Z,7.94
2019-05-09T04:58:42.234Z,7.94
2019-05-09T04:59:15.089Z,7.94
2019-05-09T04:59:48.025Z,7.94
2019-05-09T05:00:28.554Z,7.94
2019-05-09T05:01:20.195Z,7.94
2019-05-09T05:02:08.637Z,7.94
2019-05-09T05:02:44.693Z,7.94
2019-05-09T05:03:18.303Z,8.00
2019-05-09T05:03:53.197Z,7.94
2019-05-09T05:04:28.252Z,8.00
2019-05-09T05:05:01.453Z,8.00
2019-05-09T05:05:34.367Z,8.00
2019-05-09T05:06:07.725Z,8.00
2019-05-09T05:06:41.161Z,8.00
2019-05-09T05:07:14.161Z,8.00
2019-05-09T05:07:48.081Z,8.00
2019-05-09T05:08:21.033Z,8.06
2019-05-09T05:08:54.040Z,8.06
2019-05-09T05:09:27.750Z,8.06
2019-05-09T05:10:01.161Z,8.13
2019-05-09T05:10:34.058Z,8.13
2019-05-09T05:11:07.570Z,8.13
2019-05-09T05:11:40.661Z,8.19
2019-05-09T05:12:13.801Z,8.19
2019-05-09T05:12:48.421Z,8.25
2019-05-09T05:13:26.520Z,8.25
2019-05-09T05:13:58.403Z,8.25
2019-05-09T05:14:31.210Z,8.31
2019-05-09T05:15:08.157Z,8.31
2019-05-09T05:15:42.026Z,8.38
2019-05-09T05:16:15.056Z,8.38
2019-05-09T05:16:53.080Z,8.38
2019-05-09T05:17:30.233Z,8.44
2019-05-09T05:18:01.689Z,8.44
2019-05-09T05:18:34.610Z,8.50
2019-05-09T05:19:08.766Z,8.50
2019-05-09T05:19:41.637Z,8.50
2019-05-09T05:20:18.896Z,8.56
2019-05-09T05:20:52.167Z,8.56
2019-05-09T05:21:25.178Z,8.56
2019-05-09T05:22:07.405Z,8.56
2019-05-09T05:22:53.722Z,8.63
2019-05-09T05:23:37.949Z,8.63
2019-05-09T05:24:18.326Z,8.63
2019-05-09T05:24:56.053Z,8.69
2019-05-09T05:25:28.994Z,8.69
2019-05-09T05:26:01.991Z,8.75
2019-05-09T05:26:34.984Z,8.75
2019-05-09T05:27:08.390Z,8.81
2019-05-09T05:27:41.471Z,8.81
2019-05-09T05:28:14.688Z,8.81
2019-05-09T05:28:48.184Z,8.81
2019-05-09T05:29:21.113Z,8.81
2019-05-09T05:29:53.962Z,8.81
2019-05-09T05:30:28.435Z,8.88
2019-05-09T05:31:01.637Z,8.88
2019-05-09T05:31:34.643Z,8.94
2019-05-09T05:32:12.416Z,8.94
2019-05-09T05:32:57.703Z,8.94
2019-05-09T05:33:53.350Z,9.00
2019-05-09T05:34:29.030Z,9.00
2019-05-09T05:35:24.531Z,9.06
2019-05-09T05:35:59.666Z,9.06
2019-05-09T05:36:32.706Z,9.06
2019-05-09T05:37:07.535Z,9.13
2019-05-09T05:37:40.729Z,9.13
2019-05-09T05:38:13.724Z,9.13
2019-05-09T05:38:47.986Z,9.19
2019-05-09T05:39:20.969Z,9.19
2019-05-09T05:39:53.966Z,9.25
2019-05-09T05:40:32.809Z,9.25
2019-05-09T05:41:02.100Z,9.25
2019-05-09T05:41:37.687Z,9.25
2019-05-09T05:42:10.454Z,9.25
2019-05-09T05:42:43.412Z,9.25
2019-05-09T05:43:17.438Z,9.31
2019-05-09T05:43:50.626Z,9.31
2019-05-09T05:44:23.800Z,9.38
2019-05-09T05:44:58.291Z,9.38
2019-05-09T05:45:37.503Z,9.38
2019-05-09T05:46:24.412Z,9.38
2019-05-09T05:47:32.535Z,9.44
2019-05-09T05:48:11.118Z,9.50
2019-05-09T05:48:44.536Z,9.50
2019-05-09T05:49:18.601Z,9.50
2019-05-09T05:49:51.940Z,9.56
2019-05-09T05:50:25.091Z,9.56
2019-05-09T05:50:58.063Z,9.56
2019-05-09T05:51:48.324Z,9.56
2019-05-09T05:52:21.405Z,9.56
2019-05-09T05:52:54.485Z,9.63
2019-05-09T05:53:27.882Z,9.63
2019-05-09T05:54:02.420Z,9.69
2019-05-09T05:54:37.687Z,9.69
2019-05-09T05:55:11.958Z,9.69
2019-05-09T05:55:45.094Z,9.69
2019-05-09T05:56:18.038Z,9.75
2019-05-09T05:56:51.102Z,9.75
2019-05-09T05:57:25.276Z,9.75
2019-05-09T05:57:59.207Z,9.75
2019-05-09T05:58:32.286Z,9.81
2019-05-09T05:59:05.242Z,9.81
2019-05-09T05:59:40.798Z,9.81
2019-05-09T06:00:14.857Z,9.81
2019-05-09T06:00:49.364Z,9.81
2019-05-09T06:01:22.913Z,9.81
2019-05-09T06:01:58.431Z,9.81
2019-05-09T06:02:31.716Z,9.81
2019-05-09T06:03:04.707Z,9.81
2019-05-09T06:03:38.200Z,9.81
2019-05-09T06:04:11.240Z,9.81
2019-05-09T06:04:45.294Z,9.81
2019-05-09T06:05:18.808Z,9.88
2019-05-09T06:05:52.129Z,9.88
2019-05-09T06:06:24.980Z,9.88
2019-05-09T06:06:58.813Z,9.88
2019-05-09T06:07:31.954Z,9.88
2019-05-09T06:08:04.937Z,9.88
2019-05-09T06:08:38.176Z,9.88
2019-05-09T06:09:11.288Z,9.88
2019-05-09T06:09:44.356Z,9.88
2019-05-09T06:10:18.658Z,9.88
2019-05-09T06:10:52.481Z,9.88
2019-05-09T06:11:27.898Z,9.88
2019-05-09T06:12:00.419Z,9.94
2019-05-09T06:12:33.553Z,9.94
2019-05-09T06:13:07.934Z,9.94
2019-05-09T06:13:54.444Z,9.94
2019-05-09T06:14:18.528Z,9.94
2019-05-09T06:14:51.935Z,9.94
2019-05-09T06:15:24.990Z,9.94
2019-05-09T06:15:58.759Z,9.94
2019-05-09T06:16:32.126Z,10.00
2019-05-09T06:17:07.623Z,10.00
2019-05-09T06:17:40.280Z,10.00
2019-05-09T06:18:15.007Z,10.00
2019-05-09T06:18:47.968Z,10.00
2019-05-09T06:19:21.017Z,10.06
2019-05-09T06:19:53.887Z,10.06
2019-05-09T06:20:28.122Z,10.06
2019-05-09T06:21:01.318Z,10.13
2019-05-09T06:21:34.368Z,10.13
2019-05-09T06:22:08.291Z,10.13
2019-05-09T06:22:41.478Z,10.19
2019-05-09T06:23:14.622Z,10.19
2019-05-09T06:23:48.239Z,10.25
2019-05-09T06:24:21.494Z,10.31
2019-05-09T06:24:54.442Z,10.31
2019-05-09T06:25:30.411Z,10.38
2019-05-09T06:26:02.485Z,10.38
2019-05-09T06:26:37.250Z,10.38
2019-05-09T06:27:10.745Z,10.44
2019-05-09T06:27:43.607Z,10.44
2019-05-09T06:28:18.247Z,10.50
2019-05-09T06:28:51.572Z,10.56
2019-05-09T06:29:24.636Z,10.56
2019-05-09T06:29:58.309Z,10.63
2019-05-09T06:30:31.963Z,10.63
2019-05-09T06:31:07.415Z,10.69
2019-05-09T06:31:40.186Z,10.69
2019-05-09T06:32:13.296Z,10.75
2019-05-09T06:32:47.743Z,10.81
2019-05-09T06:33:21.195Z,10.81
2019-05-09T06:33:54.145Z,10.88
2019-05-09T06:34:27.761Z,10.94
2019-05-09T06:35:01.148Z,10.94
2019-05-09T06:35:37.759Z,11.00
2019-05-09T06:36:10.118Z,11.06
2019-05-09T06:36:43.119Z,11.06
2019-05-09T06:37:18.378Z,11.12
2019-05-09T06:37:51.676Z,11.12
2019-05-09T06:38:24.761Z,11.19
2019-05-09T06:38:58.780Z,11.19
2019-05-09T06:39:33.856Z,11.19
2019-05-09T06:40:10.673Z,11.25
2019-05-09T06:40:43.619Z,11.25
2019-05-09T06:41:17.641Z,11.31
2019-05-09T06:41:50.836Z,11.31
2019-05-09T06:42:25.464Z,11.38
2019-05-09T06:43:02.176Z,11.38
2019-05-09T06:43:39.453Z,11.44
2019-05-09T06:44:30.842Z,11.50
2019-05-09T06:45:21.831Z,11.56
2019-05-09T06:46:08.119Z,11.56
2019-05-09T06:47:09.504Z,11.56
2019-05-09T06:47:44.018Z,11.56
2019-05-09T06:48:18.101Z,11.56
2019-05-09T06:48:51.308Z,11.56
2019-05-09T06:49:31.729Z,11.56
2019-05-09T06:50:08.039Z,11.56
2019-05-09T06:50:41.169Z,11.63
2019-05-09T06:51:14.233Z,11.69
2019-05-09T06:51:47.693Z,11.75
2019-05-09T06:52:20.876Z,11.75
2019-05-09T06:52:53.809Z,11.81
2019-05-09T06:53:27.318Z,11.88
2019-05-09T06:54:00.334Z,11.94
2019-05-09T06:54:33.407Z,12.00
2019-05-09T06:55:08.686Z,12.00
2019-05-09T06:55:41.826Z,12.06
2019-05-09T06:56:14.909Z,12.06
2019-05-09T06:56:48.034Z,12.13
2019-05-09T06:57:21.193Z,12.25
2019-05-09T06:57:54.163Z,12.37
2019-05-09T06:58:30.871Z,12.44
2019-05-09T06:59:04.089Z,12.56
2019-05-09T06:59:38.181Z,12.69
2019-05-09T07:00:20.534Z,12.75
2019-05-09T07:01:18.358Z,12.81
2019-05-09T07:02:00.002Z,12.94
2019-05-09T07:02:47.883Z,13.00
2019-05-09T07:03:21.489Z,13.13
2019-05-09T07:03:59.296Z,13.19
2019-05-09T07:04:51.809Z,13.19
2019-05-09T07:05:32.753Z,13.19
2019-05-09T07:06:22.650Z,13.25
2019-05-09T07:07:02.887Z,13.38
2019-05-09T07:07:44.347Z,13.38
2019-05-09T07:08:31.868Z,13.44
2019-05-09T07:09:28.608Z,13.56
2019-05-09T07:10:02.842Z,13.69
2019-05-09T07:10:37.682Z,13.75
2019-05-09T07:11:11.609Z,13.81
2019-05-09T07:11:45.392Z,13.88
2019-05-09T07:12:18.507Z,13.94
2019-05-09T07:12:51.470Z,14.06
2019-05-09T07:13:24.490Z,14.06
2019-05-09T07:13:57.950Z,14.13
2019-05-09T07:14:33.963Z,14.19
2019-05-09T07:15:08.787Z,14.25
2019-05-09T07:15:42.826Z,14.38
2019-05-09T07:16:18.456Z,14.44
2019-05-09T07:16:50.776Z,14.50
2019-05-09T07:17:23.856Z,14.56
2019-05-09T07:17:57.492Z,14.56
2019-05-09T07:18:31.742Z,14.69
2019-05-09T07:19:04.791Z,14.69
2019-05-09T07:19:38.423Z,14.75
2019-05-09T07:20:11.792Z,14.81
2019-05-09T07:20:44.727Z,14.81
2019-05-09T07:21:19.197Z,14.87
2019-05-09T07:22:18.414Z,14.94
2019-05-09T07:22:53.993Z,15.06
2019-05-09T07:23:28.182Z,15.13
2019-05-09T07:24:01.503Z,15.19
2019-05-09T07:25:14.508Z,15.19
2019-05-09T07:26:07.788Z,15.25
2019-05-09T07:26:40.981Z,15.31
2019-05-09T07:27:14.861Z,15.31
2019-05-09T07:27:48.439Z,15.38
2019-05-09T07:28:21.517Z,15.38
2019-05-09T07:28:54.588Z,15.38
2019-05-09T07:29:28.581Z,15.31
2019-05-09T07:30:07.972Z,15.31
2019-05-09T07:30:50.048Z,15.38
2019-05-09T07:31:28.549Z,15.50
2019-05-09T07:32:09.200Z,15.56
2019-05-09T07:32:50.379Z,15.69
2019-05-09T07:33:33.544Z,15.75
2019-05-09T07:34:18.476Z,15.88
2019-05-09T07:34:57.920Z,15.94
2019-05-09T07:35:31.022Z,15.94
2019-05-09T07:36:04.150Z,15.94
2019-05-09T07:36:38.489Z,15.94
2019-05-09T07:37:11.468Z,15.94
2019-05-09T07:37:44.388Z,16.00
2019-05-09T07:38:27.776Z,16.06
2019-05-09T07:39:00.842Z,16.19
2019-05-09T07:39:33.866Z,16.19
2019-05-09T07:40:08.405Z,16.19
2019-05-09T07:40:41.766Z,16.06
2019-05-09T07:41:15.006Z,16.00
2019-05-09T07:41:48.253Z,16.00
2019-05-09T07:42:21.268Z,16.06
2019-05-09T07:42:54.343Z,16.00
2019-05-09T07:43:28.168Z,16.06
2019-05-09T07:44:01.260Z,16.06
2019-05-09T07:44:46.180Z,16.06
2019-05-09T07:45:10.281Z,16.00
2019-05-09T07:46:03.471Z,15.88
2019-05-09T07:46:48.234Z,15.81
2019-05-09T07:47:21.147Z,15.75
2019-05-09T07:47:54.089Z,15.69
2019-05-09T07:48:28.565Z,15.69
2019-05-09T07:49:04.508Z,15.63
2019-05-09T07:49:37.793Z,15.69